DRRN/NIM METAR and TAF weather

Enter ICAO airport designator
Station Type Date Time Source
DRRN METAR 2018/06/25 02:00 UTC NOAA

DRRN 250200Z 22004KT CAVOK 27/22 Q1010 NOSIG


Station Type Date Time Source
DRRN Decoded METAR 2018/06/25 02:00 UTC NOAA

Niamey-Aero, Niger (DRRN) 13-29N 002-10E 227M
Jun 24, 2018 - 10:00 PM EDT / 2018.06.25 0200 UTC
Wind: from the SW (220 degrees) at 5 MPH (4 KT):0
Visibility: greater than 7 mile(s):0
Temperature: 80 F (27 C)
Dew Point: 71 F (22 C)
Relative Humidity: 74%
Pressure (altimeter): 29.83 in. Hg (1010 hPa)
ob: DRRN 250200Z 22004KT CAVOK 27/22 Q1010 NOSIG
cycle: 2

Station Type Date Time Source
DRRN TAF 2018/06/24 18:21 UTC NOAA

TAF DRRN 241700Z 2418/2524 20010KT 8000 NSC PROB40
TEMPO 2421/2501 08025G35KT 0200 SQ BLDU TSRA SCT030 SCT040CB PROB40
TEMPO 2514/2518 TS SCT030 FEW040CB


Example: see airport list